Time;durP1;ratioP1;P1;durP2;ratioP2;P2;SDS_P1;SDS_P2;PMS_P1;PMS_P2;Temp;Humidity;BMP_temperature;BMP_pressure;BME280_temperature;BME280_humidity;BME280_pressure;Samples;Min_cycle;Max_cycle;Signal;HPM_P1;HPM_P2
2023/04/16 00:00:21;;;;;;;1.63;1.07;;;7.40;99.90;;;;;;5093018;28;20472;-83
2023/04/16 00:02:48;;;;;;;3.03;1.27;;;7.40;99.90;;;;;;5093038;28;20472;-83
2023/04/16 00:05:15;;;;;;;2.97;1.23;;;7.40;99.90;;;;;;5092984;28;20466;-83
2023/04/16 00:07:41;;;;;;;1.17;1.07;;;7.40;99.90;;;;;;5092683;28;20441;-83
2023/04/16 00:10:09;;;;;;;0.60;0.60;;;7.40;99.90;;;;;;5092920;28;20473;-83
2023/04/16 00:12:36;;;;;;;0.97;0.57;;;7.40;99.90;;;;;;5093472;28;20449;-83
2023/04/16 00:15:04;;;;;;;0.87;0.70;;;7.40;99.90;;;;;;5092932;28;20982;-83
2023/04/16 00:17:31;;;;;;;1.63;0.70;;;7.40;99.90;;;;;;5092824;28;20476;-83
2023/04/16 00:19:58;;;;;;;1.53;0.77;;;7.40;99.90;;;;;;5092776;28;20476;-83
2023/04/16 00:22:24;;;;;;;4.47;1.63;;;7.40;99.90;;;;;;5092848;28;20457;-83
2023/04/16 00:24:51;;;;;;;2.10;1.47;;;7.30;99.90;;;;;;5093794;28;20455;-83
2023/04/16 00:27:19;;;;;;;1.17;1.07;;;7.30;99.90;;;;;;5096452;28;20857;-83
2023/04/16 00:29:45;;;;;;;1.03;0.70;;;7.30;99.90;;;;;;5096314;28;20471;-83
2023/04/16 00:32:13;;;;;;;2.00;1.10;;;7.30;99.90;;;;;;5096032;28;20931;-83
2023/04/16 00:34:40;;;;;;;2.20;0.67;;;7.30;99.90;;;;;;5096299;28;20528;-82
2023/04/16 00:37:07;;;;;;;1.80;1.03;;;7.30;99.90;;;;;;5096258;28;20444;-83
2023/04/16 00:39:34;;;;;;;2.73;0.70;;;7.30;99.90;;;;;;5095777;28;20484;-83
2023/04/16 00:42:00;;;;;;;1.33;0.90;;;7.40;99.90;;;;;;5096114;28;20433;-83
2023/04/16 00:44:28;;;;;;;1.50;1.03;;;7.40;99.90;;;;;;5096163;28;20455;-83
2023/04/16 00:46:55;;;;;;;0.87;0.50;;;7.40;99.90;;;;;;5095774;28;20579;-83
2023/04/16 00:49:24;;;;;;;1.07;0.97;;;7.30;99.90;;;;;;5096081;28;20429;-83
2023/04/16 00:51:51;;;;;;;0.60;0.60;;;7.30;99.90;;;;;;5095686;28;21003;-83
2023/04/16 00:54:17;;;;;;;1.37;0.90;;;7.40;99.90;;;;;;5095643;28;20497;-83
2023/04/16 00:56:44;;;;;;;3.17;1.87;;;7.30;99.90;;;;;;5095602;28;21058;-83
2023/04/16 00:59:11;;;;;;;0.60;0.50;;;7.30;99.90;;;;;;5096614;28;20485;-84
2023/04/16 01:01:38;;;;;;;0.80;0.50;;;7.30;99.90;;;;;;5095426;28;21025;-83
2023/04/16 01:04:06;;;;;;;5.90;1.33;;;7.30;99.90;;;;;;5095770;28;20468;-83
2023/04/16 01:06:34;;;;;;;3.80;1.30;;;7.40;99.90;;;;;;5095672;28;20479;-84
2023/04/16 01:09:00;;;;;;;2.90;1.13;;;7.40;99.90;;;;;;5095344;28;20977;-83
2023/04/16 01:11:27;;;;;;;3.80;1.20;;;7.40;99.90;;;;;;5095562;28;20464;-83
2023/04/16 01:13:54;;;;;;;2.50;1.00;;;7.40;99.90;;;;;;5095678;28;20467;-83
2023/04/16 01:16:21;;;;;;;2.57;0.67;;;7.40;99.90;;;;;;5095575;28;20457;-83
2023/04/16 01:18:47;;;;;;;0.73;0.73;;;7.30;99.90;;;;;;5095403;28;20468;-83
2023/04/16 01:21:15;;;;;;;4.93;1.60;;;7.30;99.90;;;;;;5095038;28;21048;-83
2023/04/16 01:23:42;;;;;;;2.37;1.57;;;7.30;99.90;;;;;;5095359;28;20479;-83
2023/04/16 01:26:09;;;;;;;2.77;0.93;;;7.30;99.90;;;;;;5095081;28;20440;-83
2023/04/16 01:28:35;;;;;;;3.47;1.03;;;7.30;99.90;;;;;;5095266;28;20441;-83
2023/04/16 01:31:02;;;;;;;1.00;0.70;;;7.30;99.90;;;;;;5095168;28;20464;-84
2023/04/16 01:33:29;;;;;;;1.90;0.90;;;7.30;99.90;;;;;;5095119;28;20460;-83
2023/04/16 01:35:55;;;;;;;1.53;0.90;;;7.30;99.90;;;;;;5094731;28;20445;-83
2023/04/16 01:38:23;;;;;;;1.50;0.47;;;7.30;99.90;;;;;;5094684;28;20476;-83
2023/04/16 01:40:50;;;;;;;0.80;0.70;;;7.40;99.90;;;;;;5094938;28;20469;-83
2023/04/16 01:43:17;;;;;;;0.70;0.70;;;7.30;99.90;;;;;;5094730;28;20963;-82
2023/04/16 01:45:44;;;;;;;1.07;0.60;;;7.30;99.90;;;;;;5094906;28;20452;-83
2023/04/16 01:48:10;;;;;;;1.03;0.97;;;7.30;99.90;;;;;;5094469;28;20497;-82
2023/04/16 01:50:37;;;;;;;0.93;0.90;;;7.30;99.90;;;;;;5094448;28;20988;-83
2023/04/16 01:53:04;;;;;;;0.80;0.60;;;7.30;99.90;;;;;;5094816;28;20440;-83
2023/04/16 01:55:33;;;;;;;0.40;0.40;;;7.30;99.90;;;;;;5094462;28;20437;-83
2023/04/16 01:57:59;;;;;;;1.80;0.53;;;7.30;99.90;;;;;;5094306;28;20572;-83
2023/04/16 02:00:26;;;;;;;0.50;0.40;;;7.30;99.90;;;;;;5094290;28;20968;-83
2023/04/16 02:02:53;;;;;;;1.70;0.77;;;7.30;99.90;;;;;;5094627;28;20452;-83
2023/04/16 02:05:20;;;;;;;0.63;0.47;;;7.30;99.90;;;;;;5094536;28;20448;-83
2023/04/16 02:07:46;;;;;;;1.90;0.60;;;7.30;99.90;;;;;;5094562;28;20455;-83
2023/04/16 02:10:13;;;;;;;2.20;0.70;;;7.30;99.90;;;;;;5094448;28;20460;-83
2023/04/16 02:12:41;;;;;;;0.40;0.40;;;7.40;99.90;;;;;;5094449;28;20449;-83
2023/04/16 02:15:09;;;;;;;1.60;1.10;;;7.30;99.90;;;;;;5094387;28;20510;-83
2023/04/16 02:17:35;;;;;;;2.10;0.50;;;7.40;99.90;;;;;;5094342;28;20449;-83
2023/04/16 02:20:04;;;;;;;0.60;0.40;;;7.40;99.90;;;;;;5093854;28;20996;-83
2023/04/16 02:22:31;;;;;;;1.17;0.93;;;7.40;99.90;;;;;;5094286;28;20440;-83
2023/04/16 02:24:57;;;;;;;0.40;0.40;;;7.40;99.90;;;;;;5094267;28;20498;-83
2023/04/16 02:27:24;;;;;;;4.23;0.80;;;7.30;99.90;;;;;;5094198;28;20445;-83
2023/04/16 02:29:52;;;;;;;0.97;0.80;;;7.30;99.90;;;;;;5094058;28;20471;-82
2023/04/16 02:32:19;;;;;;;0.60;0.40;;;7.30;99.90;;;;;;5093767;28;20936;-83
2023/04/16 02:34:46;;;;;;;0.43;0.43;;;7.30;99.90;;;;;;5094000;28;20448;-83
2023/04/16 02:37:14;;;;;;;2.20;0.67;;;7.30;99.90;;;;;;5093722;28;20940;-83
2023/04/16 02:39:41;;;;;;;0.37;0.33;;;7.30;99.90;;;;;;5093774;28;20472;-83
2023/04/16 02:42:08;;;;;;;0.67;0.67;;;7.30;99.90;;;;;;5093881;28;20459;-84
2023/04/16 02:44:35;;;;;;;0.40;0.40;;;7.30;99.90;;;;;;5093578;28;20959;-83
2023/04/16 02:47:03;;;;;;;0.60;0.60;;;7.30;99.90;;;;;;5093082;28;20897;-83
2023/04/16 02:49:29;;;;;;;0.57;0.43;;;7.30;99.90;;;;;;5093673;28;20451;-83
2023/04/16 02:51:56;;;;;;;0.87;0.60;;;7.30;99.90;;;;;;5093808;28;20449;-83
2023/04/16 02:54:23;;;;;;;0.87;0.40;;;7.30;99.90;;;;;;5093716;28;20457;-83
2023/04/16 02:56:50;;;;;;;0.40;0.30;;;7.30;99.90;;;;;;5093707;28;20445;-83
2023/04/16 02:59:16;;;;;;;0.47;0.40;;;7.30;99.90;;;;;;5093303;28;20914;-83
2023/04/16 03:01:43;;;;;;;2.67;0.97;;;7.40;99.90;;;;;;5093595;28;20465;-83
2023/04/16 03:04:11;;;;;;;0.47;0.40;;;7.30;99.90;;;;;;5093307;28;20449;-83
2023/04/16 03:06:38;;;;;;;0.40;0.40;;;7.30;99.90;;;;;;5093283;28;20959;-84
2023/04/16 03:09:04;;;;;;;2.37;0.80;;;7.30;99.90;;;;;;5094295;28;20847;-83
2023/04/16 03:11:31;;;;;;;0.40;0.40;;;7.30;99.90;;;;;;5093437;28;20468;-83
2023/04/16 03:13:58;;;;;;;0.77;0.50;;;7.30;99.90;;;;;;5093524;28;20455;-83
2023/04/16 03:16:24;;;;;;;0.87;0.60;;;7.30;99.90;;;;;;5093534;28;20448;-83
2023/04/16 03:18:52;;;;;;;0.90;0.60;;;7.30;99.90;;;;;;5093509;28;20484;-83
2023/04/16 03:21:20;;;;;;;1.00;0.70;;;7.30;99.90;;;;;;5093692;28;20526;-83
2023/04/16 03:23:46;;;;;;;0.53;0.50;;;7.30;99.90;;;;;;5093471;28;20458;-83
2023/04/16 03:26:13;;;;;;;1.07;0.80;;;7.20;99.90;;;;;;5093432;28;20440;-83
2023/04/16 03:28:40;;;;;;;4.10;0.90;;;7.20;99.90;;;;;;5093113;28;20482;-81
2023/04/16 03:31:06;;;;;;;3.17;0.90;;;7.20;99.90;;;;;;5092939;28;20471;-81
2023/04/16 03:33:33;;;;;;;0.80;0.40;;;7.20;99.90;;;;;;5092976;28;20449;-81
2023/04/16 03:36:00;;;;;;;0.73;0.60;;;7.30;99.90;;;;;;5092944;28;20811;-81
2023/04/16 03:38:28;;;;;;;1.47;0.60;;;7.30;99.90;;;;;;5093171;28;20452;-81
2023/04/16 03:40:54;;;;;;;1.37;1.13;;;7.20;99.90;;;;;;5093165;28;20469;-80
2023/04/16 03:43:21;;;;;;;1.50;1.00;;;7.20;99.90;;;;;;5093213;28;20459;-80
2023/04/16 03:45:48;;;;;;;2.63;0.80;;;7.20;99.90;;;;;;5093206;28;20455;-80
2023/04/16 03:48:14;;;;;;;2.43;1.20;;;7.20;99.90;;;;;;5092745;28;20571;-80
2023/04/16 03:50:45;;;;;;;3.77;1.10;;;7.20;99.90;;;;;;5093084;28;20471;-80
2023/04/16 03:53:12;;;;;;;2.20;0.70;;;7.20;99.90;;;;;;5093186;28;20449;-80
2023/04/16 03:55:40;;;;;;;3.50;1.07;;;7.20;99.90;;;;;;5093064;28;20451;-81
2023/04/16 03:58:07;;;;;;;1.97;0.90;;;7.20;99.90;;;;;;5093095;28;20459;-81
2023/04/16 04:00:34;;;;;;;2.77;0.63;;;7.20;99.90;;;;;;5096761;28;20491;-81
2023/04/16 04:03:00;;;;;;;1.33;0.83;;;7.20;99.90;;;;;;5096940;28;20535;-81
2023/04/16 04:05:27;;;;;;;0.70;0.40;;;7.30;99.90;;;;;;5096896;28;20448;-81
2023/04/16 04:07:54;;;;;;;0.63;0.63;;;7.20;99.90;;;;;;5096865;28;20444;-81
2023/04/16 04:10:20;;;;;;;2.37;1.00;;;7.20;99.90;;;;;;5096693;28;20823;-81
2023/04/16 04:12:49;;;;;;;1.30;0.77;;;7.20;99.90;;;;;;5096794;28;20815;-81
2023/04/16 04:15:15;;;;;;;1.47;0.90;;;7.10;99.90;;;;;;5096731;28;20451;-81
2023/04/16 04:17:42;;;;;;;0.87;0.50;;;7.10;99.90;;;;;;5096666;28;20444;-81
2023/04/16 04:20:10;;;;;;;2.40;0.80;;;7.20;99.90;;;;;;5096478;28;20495;-81
2023/04/16 04:22:37;;;;;;;1.73;0.60;;;7.10;99.90;;;;;;5096585;28;20527;-81
2023/04/16 04:25:04;;;;;;;0.30;0.30;;;7.10;99.90;;;;;;5096545;28;20455;-81
2023/04/16 04:27:31;;;;;;;3.63;1.43;;;7.10;99.90;;;;;;5096467;28;20444;-81
2023/04/16 04:29:59;;;;;;;1.70;0.40;;;7.20;99.90;;;;;;5096063;28;21032;-81
2023/04/16 04:32:25;;;;;;;1.17;0.93;;;7.20;99.90;;;;;;5096392;28;20449;-81
2023/04/16 04:34:52;;;;;;;0.83;0.70;;;7.20;99.90;;;;;;5096057;28;20474;-81
2023/04/16 04:37:19;;;;;;;4.43;1.10;;;7.10;99.90;;;;;;5096289;28;20444;-81
2023/04/16 04:39:46;;;;;;;2.13;0.47;;;7.10;99.90;;;;;;5095754;28;20495;-81
2023/04/16 04:42:12;;;;;;;0.60;0.40;;;7.10;99.90;;;;;;5095879;28;21000;-81
2023/04/16 04:44:39;;;;;;;1.33;0.70;;;7.10;99.90;;;;;;5096136;28;20468;-81
2023/04/16 04:47:07;;;;;;;1.00;0.50;;;7.10;99.90;;;;;;5095830;28;20567;-81
2023/04/16 04:49:34;;;;;;;1.07;0.60;;;7.10;99.90;;;;;;5095994;28;20447;-81
2023/04/16 04:52:01;;;;;;;0.80;0.50;;;7.10;99.90;;;;;;5095986;28;20505;-81
2023/04/16 04:54:28;;;;;;;0.70;0.30;;;7.10;99.90;;;;;;5095645;28;20808;-81
2023/04/16 04:56:55;;;;;;;1.73;0.93;;;7.10;99.90;;;;;;5096474;28;20456;-80
2023/04/16 04:59:22;;;;;;;0.53;0.43;;;7.10;99.90;;;;;;5095773;28;20510;-80
2023/04/16 05:01:49;;;;;;;1.47;0.80;;;7.10;99.90;;;;;;5095821;28;20575;-81
2023/04/16 05:04:17;;;;;;;1.37;0.60;;;7.20;99.90;;;;;;5095757;28;20446;-81
2023/04/16 05:06:44;;;;;;;1.03;0.43;;;7.10;99.90;;;;;;5095446;28;20951;-81
2023/04/16 05:09:11;;;;;;;1.23;0.50;;;7.10;99.90;;;;;;5095681;28;20476;-81
2023/04/16 05:11:37;;;;;;;0.40;0.40;;;7.10;99.90;;;;;;5094785;28;20861;-81
2023/04/16 05:14:04;;;;;;;1.20;0.53;;;7.10;99.90;;;;;;5095573;28;20488;-79
2023/04/16 05:16:31;;;;;;;5.33;1.00;;;7.10;99.90;;;;;;5095563;28;20501;-79
2023/04/16 05:18:58;;;;;;;0.93;0.60;;;7.20;99.90;;;;;;5095406;28;20445;-78
2023/04/16 05:21:26;;;;;;;0.90;0.70;;;7.10;99.90;;;;;;5095401;28;20473;-78
2023/04/16 05:23:53;;;;;;;1.40;0.50;;;7.10;99.90;;;;;;5095372;28;20531;-78
2023/04/16 05:26:20;;;;;;;1.13;0.90;;;7.10;99.90;;;;;;5095355;28;20803;-78
2023/04/16 05:28:46;;;;;;;2.30;1.60;;;7.20;99.90;;;;;;5095268;28;20457;-78
2023/04/16 05:31:13;;;;;;;4.83;0.90;;;7.20;99.90;;;;;;5095185;28;20468;-78
2023/04/16 05:33:40;;;;;;;2.60;1.00;;;7.20;99.90;;;;;;5095220;28;20448;-79
2023/04/16 05:36:07;;;;;;;2.00;1.17;;;7.10;99.90;;;;;;5095202;28;20460;-79
2023/04/16 05:38:34;;;;;;;1.90;1.10;;;7.10;99.90;;;;;;5095071;28;20448;-79
2023/04/16 05:41:01;;;;;;;1.90;1.10;;;7.10;99.90;;;;;;5094583;28;20491;-79
2023/04/16 05:43:28;;;;;;;7.50;1.50;;;7.10;99.90;;;;;;5094641;28;20451;-79
2023/04/16 05:45:55;;;;;;;1.50;0.73;;;7.10;99.90;;;;;;5094964;28;20786;-79
2023/04/16 05:48:21;;;;;;;5.47;1.43;;;7.10;99.90;;;;;;5094456;28;20534;-79
2023/04/16 05:50:49;;;;;;;3.87;1.30;;;7.20;99.90;;;;;;5094828;28;20467;-79
2023/04/16 05:53:17;;;;;;;2.60;1.73;;;7.20;99.90;;;;;;5094814;28;20795;-79
2023/04/16 05:55:45;;;;;;;6.73;1.00;;;7.20;99.90;;;;;;5094694;28;20449;-79
2023/04/16 05:58:12;;;;;;;4.57;1.87;;;7.20;99.90;;;;;;5094753;28;20440;-79
2023/04/16 06:00:39;;;;;;;1.73;1.40;;;7.20;99.90;;;;;;5094556;28;20537;-79
2023/04/16 06:03:06;;;;;;;1.67;0.67;;;7.10;99.90;;;;;;5094361;28;20958;-79
2023/04/16 06:05:33;;;;;;;2.33;1.50;;;7.10;99.90;;;;;;5094594;28;20874;-79
2023/04/16 06:07:59;;;;;;;1.77;1.17;;;7.10;99.90;;;;;;5094402;28;20523;-79
2023/04/16 06:10:26;;;;;;;4.83;1.00;;;7.10;99.90;;;;;;5094109;28;20469;-79
2023/04/16 06:12:55;;;;;;;1.57;0.80;;;7.10;99.90;;;;;;5094485;28;20447;-78
2023/04/16 06:15:21;;;;;;;2.87;0.90;;;7.10;99.90;;;;;;5094546;28;20854;-87
2023/04/16 06:17:49;;;;;;;3.90;2.37;;;7.10;99.90;;;;;;5094976;28;20449;-86
2023/04/16 06:20:16;;;;;;;3.30;1.33;;;7.10;99.90;;;;;;5094881;28;20480;-87
2023/04/16 06:22:43;;;;;;;3.10;1.67;;;7.00;99.90;;;;;;5095065;28;20449;-87
2023/04/16 06:25:10;;;;;;;1.57;0.93;;;7.00;99.90;;;;;;5094943;28;20459;-88
2023/04/16 06:27:37;;;;;;;4.67;1.77;;;7.10;99.90;;;;;;5095107;28;20447;-87
2023/04/16 06:30:11;;;;;;;2.13;0.90;;;7.00;99.90;;;;;;5094582;28;20481;-88
2023/04/16 06:32:37;;;;;;;2.10;0.87;;;7.10;99.90;;;;;;5094878;28;20420;-87
2023/04/16 06:35:05;;;;;;;3.10;1.30;;;7.00;99.90;;;;;;5094912;28;20448;-88
2023/04/16 06:37:31;;;;;;;2.90;1.43;;;7.00;99.90;;;;;;5094910;28;20452;-88
2023/04/16 06:39:58;;;;;;;2.70;1.43;;;7.00;99.90;;;;;;5094674;28;20488;-88
2023/04/16 06:42:25;;;;;;;6.40;2.03;;;7.00;99.90;;;;;;5094370;28;20424;-80
2023/04/16 06:44:51;;;;;;;2.40;1.20;;;7.10;99.90;;;;;;5093891;28;20452;-80
2023/04/16 06:47:19;;;;;;;7.43;2.43;;;7.10;99.90;;;;;;5093561;28;20897;-80
2023/04/16 06:49:47;;;;;;;3.30;1.33;;;7.10;99.90;;;;;;5093757;28;20464;-80
2023/04/16 06:52:14;;;;;;;2.30;0.80;;;7.10;99.90;;;;;;5093791;28;20448;-80
2023/04/16 06:54:41;;;;;;;4.13;1.20;;;7.20;99.90;;;;;;5093736;28;20489;-80
2023/04/16 06:57:07;;;;;;;4.50;2.33;;;7.20;99.90;;;;;;5093752;28;20444;-80
2023/04/16 06:59:34;;;;;;;1.47;1.37;;;7.20;99.90;;;;;;5093556;28;20455;-80
2023/04/16 07:02:01;;;;;;;5.63;2.13;;;7.20;99.90;;;;;;5093683;28;20501;-80
2023/04/16 07:04:29;;;;;;;6.30;1.87;;;7.20;99.90;;;;;;5093379;28;20492;-80
2023/04/16 07:06:55;;;;;;;8.13;2.07;;;7.20;99.90;;;;;;5093636;28;20851;-80
2023/04/16 07:09:22;;;;;;;5.60;1.30;;;7.20;99.90;;;;;;5093539;28;20448;-80
2023/04/16 07:11:49;;;;;;;5.87;2.77;;;7.20;99.90;;;;;;5093496;28;20468;-80
2023/04/16 07:14:15;;;;;;;2.20;0.93;;;7.20;99.90;;;;;;5093537;28;20448;-80
2023/04/16 07:16:42;;;;;;;3.30;2.27;;;7.20;99.90;;;;;;5093193;28;20451;-80
2023/04/16 07:19:09;;;;;;;8.00;2.80;;;7.20;99.90;;;;;;5093201;28;20461;-83
2023/04/16 07:21:37;;;;;;;10.53;2.30;;;7.30;99.90;;;;;;5093298;28;20488;-84
2023/04/16 07:24:04;;;;;;;3.33;2.20;;;7.30;99.90;;;;;;5093184;28;20453;-84
2023/04/16 07:26:31;;;;;;;6.77;1.87;;;7.30;99.90;;;;;;5093527;28;20539;-83
2023/04/16 07:28:58;;;;;;;7.03;1.90;;;7.30;99.90;;;;;;5093134;28;20441;-84
2023/04/16 07:31:25;;;;;;;6.10;1.63;;;7.30;99.90;;;;;;5093806;28;20818;-84
2023/04/16 07:33:52;;;;;;;5.43;2.00;;;7.30;99.90;;;;;;5094227;28;20440;-84
2023/04/16 07:36:19;;;;;;;6.23;2.13;;;7.40;99.90;;;;;;5097339;28;20436;-84
2023/04/16 07:38:47;;;;;;;2.17;1.10;;;7.30;99.90;;;;;;5097399;28;20459;-83
2023/04/16 07:41:13;;;;;;;3.10;1.60;;;7.40;99.90;;;;;;5097406;28;20848;-84
2023/04/16 07:43:40;;;;;;;4.10;1.40;;;7.40;99.90;;;;;;5097811;28;20455;-84
2023/04/16 07:46:07;;;;;;;6.70;3.00;;;7.40;99.90;;;;;;5097104;28;20444;-84
2023/04/16 07:48:33;;;;;;;9.83;2.30;;;7.40;99.90;;;;;;5097185;28;20995;-84
2023/04/16 07:51:00;;;;;;;4.73;1.63;;;7.40;99.90;;;;;;5097347;28;20479;-84
2023/04/16 07:53:27;;;;;;;4.00;2.20;;;7.50;99.90;;;;;;5097555;28;20505;-84
2023/04/16 07:55:55;;;;;;;1.90;1.50;;;7.40;99.90;;;;;;5097495;28;20815;-83
2023/04/16 07:58:22;;;;;;;4.93;1.60;;;7.30;99.90;;;;;;5097191;28;20456;-78
2023/04/16 08:00:49;;;;;;;4.23;1.90;;;7.40;99.90;;;;;;5096626;28;20492;-78
2023/04/16 08:03:16;;;;;;;2.73;1.70;;;7.40;99.90;;;;;;5096954;28;20452;-79
2023/04/16 08:05:43;;;;;;;5.03;1.63;;;7.40;99.90;;;;;;5096945;28;20571;-78
2023/04/16 08:08:10;;;;;;;2.13;1.10;;;7.40;99.90;;;;;;5096568;28;20453;-78
2023/04/16 08:10:37;;;;;;;6.80;1.70;;;7.40;99.90;;;;;;5096775;28;20460;-78
2023/04/16 08:13:05;;;;;;;5.60;2.50;;;7.40;99.90;;;;;;5096832;28;20437;-78
2023/04/16 08:15:31;;;;;;;3.03;1.67;;;7.50;99.90;;;;;;5096464;28;20531;-78
2023/04/16 08:17:59;;;;;;;1.77;1.10;;;7.60;99.90;;;;;;5096743;28;20455;-80
2023/04/16 08:20:26;;;;;;;6.23;2.03;;;7.50;99.90;;;;;;5096530;28;20515;-81
2023/04/16 08:22:54;;;;;;;3.80;1.90;;;7.50;99.90;;;;;;5096669;28;20830;-78
2023/04/16 08:25:22;;;;;;;3.97;2.07;;;7.40;99.90;;;;;;5096561;28;20452;-80
2023/04/16 08:27:49;;;;;;;5.60;2.80;;;7.50;99.90;;;;;;5097253;28;20441;-80
2023/04/16 08:30:18;;;;;;;3.20;1.40;;;7.50;99.90;;;;;;5096813;28;20476;-80
2023/04/16 08:32:45;;;;;;;1.93;1.13;;;7.50;99.90;;;;;;5096081;28;20960;-80
2023/04/16 08:35:12;;;;;;;6.57;1.80;;;7.60;99.90;;;;;;5096304;28;20523;-80
2023/04/16 08:37:39;;;;;;;2.40;1.10;;;7.60;99.90;;;;;;5096213;28;20453;-80
2023/04/16 08:40:07;;;;;;;6.23;1.80;;;7.60;99.90;;;;;;5095737;28;21002;-80
2023/04/16 08:42:39;;;;;;;4.60;1.43;;;7.60;99.90;;;;;;5095683;28;20456;-80
2023/04/16 08:45:08;;;;;;;6.87;1.87;;;7.60;99.90;;;;;;5094779;28;20900;-80
2023/04/16 08:47:37;;;;;;;4.50;2.57;;;7.60;99.90;;;;;;5096193;28;20564;-78
2023/04/16 08:50:05;;;;;;;2.57;1.30;;;7.70;99.90;;;;;;5095681;28;20468;-79
2023/04/16 08:52:33;;;;;;;2.60;1.10;;;7.70;99.90;;;;;;5096852;28;20780;-79
2023/04/16 08:55:07;;;;;;;1.10;1.10;;;7.70;99.90;;;;;;5096008;28;20453;-78
2023/04/16 08:57:52;;;;;;;2.03;1.30;;;7.70;99.90;;;;;;5096840;28;20449;-79
2023/04/16 09:00:20;;;;;;;7.27;2.13;;;7.70;99.90;;;;;;5097139;28;20575;-87
2023/04/16 09:02:50;;;;;;;2.70;1.40;;;7.80;99.90;;;;;;5100978;28;20452;-87
2023/04/16 09:05:18;;;;;;;8.90;2.00;;;7.80;99.90;;;;;;5102183;28;20809;-86
2023/04/16 09:07:45;;;;;;;4.60;1.57;;;7.70;99.90;;;;;;5100078;28;20456;-87
2023/04/16 09:10:14;;;;;;;3.83;1.73;;;7.70;99.90;;;;;;5101944;28;20472;-87
2023/04/16 09:12:41;;;;;;;3.33;2.10;;;7.70;99.90;;;;;;5100583;28;20483;-88
2023/04/16 09:15:11;;;;;;;5.90;2.13;;;7.80;99.90;;;;;;5102699;28;20455;-88
2023/04/16 09:17:38;;;;;;;6.77;2.30;;;7.80;99.90;;;;;;5095790;28;20428;-80
2023/04/16 09:20:09;;;;;;;1.07;0.97;;;7.90;99.90;;;;;;5095460;28;20472;-79
2023/04/16 09:22:37;;;;;;;3.20;1.80;;;8.00;99.90;;;;;;5095370;28;20441;-85
2023/04/16 09:25:04;;;;;;;5.87;2.00;;;8.00;99.90;;;;;;5095246;28;20461;-84
2023/04/16 09:27:31;;;;;;;2.23;1.30;;;8.10;99.90;;;;;;5095580;28;20464;-84
2023/04/16 09:29:59;;;;;;;4.87;1.60;;;8.10;99.90;;;;;;5095450;28;20480;-79
2023/04/16 09:32:28;;;;;;;2.27;1.30;;;8.10;99.90;;;;;;5094304;28;20441;-79
2023/04/16 09:35:11;;;;;;;3.90;1.73;;;8.10;99.90;;;;;;5095401;28;20453;-79
2023/04/16 09:37:39;;;;;;;2.70;1.47;;;8.10;99.90;;;;;;5094873;28;21005;-79
2023/04/16 09:40:07;;;;;;;3.60;2.20;;;8.10;99.90;;;;;;5095027;28;20483;-79
2023/04/16 09:42:36;;;;;;;3.50;1.73;;;8.10;99.90;;;;;;5094894;28;20436;-79
2023/04/16 09:45:04;;;;;;;6.40;3.00;;;8.10;99.90;;;;;;5095006;28;20448;-79
2023/04/16 09:47:42;;;;;;;3.47;1.67;;;8.10;99.90;;;;;;5094380;28;20545;-79
2023/04/16 09:50:14;;;;;;;3.30;1.03;;;8.10;99.90;;;;;;5095188;28;20500;-84
2023/04/16 09:52:43;;;;;;;7.80;2.20;;;8.10;99.90;;;;;;5096058;28;20421;-84
2023/04/16 09:55:10;;;;;;;4.33;1.83;;;8.00;99.90;;;;;;5096380;28;20943;-85
2023/04/16 09:57:58;;;;;;;4.63;1.77;;;8.00;99.90;;;;;;5095512;28;21043;-84
2023/04/16 10:00:25;;;;;;;5.40;2.10;;;8.00;99.90;;;;;;5096127;28;20468;-84
2023/04/16 10:03:03;;;;;;;4.17;2.23;;;8.10;99.90;;;;;;5095673;28;20456;-78
2023/04/16 10:05:30;;;;;;;4.40;1.93;;;8.00;99.90;;;;;;5094338;28;20433;-78
2023/04/16 10:08:23;;;;;;;8.13;2.30;;;7.90;99.90;;;;;;5094933;28;20506;-78
2023/04/16 10:11:09;;;;;;;2.47;1.30;;;8.00;99.90;;;;;;5094567;28;20552;-78
2023/04/16 10:13:36;;;;;;;1.60;1.40;;;8.00;99.90;;;;;;5094468;28;20452;-78
2023/04/16 10:16:03;;;;;;;0.93;0.63;;;8.00;99.90;;;;;;5094812;28;20451;-79
2023/04/16 10:18:31;;;;;;;4.27;1.10;;;7.90;99.90;;;;;;5094469;28;20421;-84
2023/04/16 10:20:58;;;;;;;8.97;1.90;;;8.00;99.90;;;;;;5094085;28;21018;-83
2023/04/16 10:23:27;;;;;;;6.97;2.07;;;8.00;99.90;;;;;;5094443;28;20432;-79
2023/04/16 10:25:54;;;;;;;2.27;1.37;;;8.00;99.90;;;;;;5094169;28;20444;-80
2023/04/16 10:28:22;;;;;;;6.47;1.77;;;8.00;99.90;;;;;;5094221;28;20437;-79
2023/04/16 10:30:52;;;;;;;2.67;2.10;;;8.00;99.90;;;;;;5094561;28;20910;-80
2023/04/16 10:33:26;;;;;;;5.53;2.50;;;8.20;99.90;;;;;;5094176;28;20444;-80
2023/04/16 10:36:09;;;;;;;4.67;1.60;;;8.20;99.90;;;;;;5094135;28;20413;-80
2023/04/16 10:38:40;;;;;;;5.20;1.50;;;8.30;99.90;;;;;;5094118;28;20421;-80
2023/04/16 10:41:08;;;;;;;2.83;1.40;;;8.20;99.90;;;;;;5093874;28;20495;-80
2023/04/16 10:43:40;;;;;;;4.07;1.17;;;8.10;99.90;;;;;;5093657;28;20461;-80
2023/04/16 10:46:21;;;;;;;2.80;1.67;;;8.10;99.90;;;;;;5094433;28;20850;-79
2023/04/16 10:48:49;;;;;;;7.40;3.07;;;8.10;99.90;;;;;;5093473;28;20479;-82
2023/04/16 10:51:28;;;;;;;3.80;2.20;;;8.10;99.90;;;;;;5093821;28;20473;-82
2023/04/16 10:53:57;;;;;;;3.27;1.73;;;8.20;99.90;;;;;;5093563;28;20456;-82
2023/04/16 10:56:25;;;;;;;5.70;1.30;;;8.20;99.90;;;;;;5093795;28;20441;-81
2023/04/16 10:58:53;;;;;;;1.80;1.30;;;8.20;99.90;;;;;;5092596;28;20520;-80
2023/04/16 11:01:29;;;;;;;4.17;1.90;;;8.20;99.90;;;;;;5093246;28;20979;-80
2023/04/16 11:03:57;;;;;;;3.03;1.93;;;8.20;99.90;;;;;;5093660;28;20425;-79
2023/04/16 11:06:25;;;;;;;2.40;0.77;;;8.30;99.90;;;;;;5093291;28;20444;-80
2023/04/16 11:08:52;;;;;;;4.90;1.20;;;8.30;99.90;;;;;;5092892;28;20444;-80
2023/04/16 11:11:21;;;;;;;3.03;1.57;;;8.30;99.90;;;;;;5093503;28;20472;-80
2023/04/16 11:13:48;;;;;;;2.80;1.10;;;8.30;99.90;;;;;;5093744;28;20956;-80
2023/04/16 11:16:15;;;;;;;2.67;2.13;;;8.40;99.90;;;;;;5093699;28;20452;-80
2023/04/16 11:18:44;;;;;;;5.07;1.37;;;8.50;99.90;;;;;;5093738;28;20440;-80
2023/04/16 11:21:12;;;;;;;4.33;1.73;;;8.60;99.90;;;;;;5093340;28;20488;-81
2023/04/16 11:23:47;;;;;;;3.77;1.50;;;8.60;99.90;;;;;;5093100;28;20456;-80
2023/04/16 11:26:25;;;;;;;4.13;1.43;;;8.60;99.90;;;;;;5093100;28;20928;-80
2023/04/16 11:28:53;;;;;;;2.20;1.50;;;8.50;99.90;;;;;;5093427;28;20429;-80
2023/04/16 11:31:19;;;;;;;7.37;1.83;;;8.60;99.90;;;;;;5093285;28;20468;-80
2023/04/16 11:33:46;;;;;;;7.10;1.60;;;8.70;99.90;;;;;;5093270;28;20448;-80
2023/04/16 11:36:13;;;;;;;4.57;1.90;;;8.80;99.90;;;;;;5093314;28;20456;-80
2023/04/16 11:38:41;;;;;;;4.90;1.40;;;8.80;99.90;;;;;;5093306;28;20456;-80
2023/04/16 11:41:08;;;;;;;4.47;1.13;;;8.90;99.90;;;;;;5093202;28;20484;-80
2023/04/16 11:43:36;;;;;;;3.00;1.10;;;8.90;99.90;;;;;;5092955;28;20951;-80
2023/04/16 11:46:05;;;;;;;1.43;1.00;;;8.90;99.90;;;;;;5093255;28;20444;-80
2023/04/16 11:48:48;;;;;;;2.13;1.93;;;8.90;99.90;;;;;;5092809;28;20866;-80
2023/04/16 11:51:15;;;;;;;2.07;1.47;;;8.90;99.90;;;;;;5092924;28;20467;-80
2023/04/16 11:53:49;;;;;;;5.70;1.23;;;8.90;99.90;;;;;;5092872;28;20457;-80
2023/04/16 11:56:24;;;;;;;3.53;1.20;;;9.00;99.90;;;;;;5093172;28;20444;-80
2023/04/16 12:01:48;;;;;;;3.07;1.63;;;9.00;99.90;;;;;;5091545;28;21026;-80
2023/04/16 12:04:15;;;;;;;4.50;1.90;;;9.00;99.90;;;;;;5090608;28;20451;-80
2023/04/16 12:06:57;;;;;;;2.50;0.90;;;9.00;99.90;;;;;;5090932;28;20444;-80
2023/04/16 12:09:25;;;;;;;2.40;1.10;;;9.00;99.90;;;;;;5090437;28;20936;-80
2023/04/16 12:11:52;;;;;;;3.77;1.80;;;9.10;99.90;;;;;;5090800;28;20548;-80
2023/04/16 12:14:20;;;;;;;5.67;1.70;;;9.20;99.90;;;;;;5090705;28;20448;-80
2023/04/16 12:16:48;;;;;;;5.10;2.23;;;9.20;99.90;;;;;;5090659;28;20496;-80
2023/04/16 12:19:15;;;;;;;2.63;1.57;;;9.10;99.90;;;;;;5090607;28;20819;-80
2023/04/16 12:21:43;;;;;;;2.27;1.77;;;9.20;99.90;;;;;;5090710;28;20467;-82
2023/04/16 12:24:12;;;;;;;3.90;1.13;;;9.20;99.90;;;;;;5090517;28;20445;-80
2023/04/16 12:26:41;;;;;;;1.53;0.90;;;9.20;99.90;;;;;;5090171;28;20860;-77
2023/04/16 12:29:16;;;;;;;1.70;1.33;;;9.20;99.90;;;;;;5090129;28;20868;-77
2023/04/16 12:31:43;;;;;;;1.73;1.60;;;9.10;99.90;;;;;;5090291;28;20483;-77
2023/04/16 12:34:11;;;;;;;2.13;1.20;;;9.10;99.90;;;;;;5090357;28;20449;-77
2023/04/16 12:36:38;;;;;;;1.97;1.77;;;9.20;99.90;;;;;;5090120;28;20475;-77
2023/04/16 12:39:06;;;;;;;1.03;0.50;;;9.10;99.90;;;;;;5089779;28;20957;-77
2023/04/16 12:41:32;;;;;;;1.60;0.70;;;9.10;99.90;;;;;;5090214;28;20547;-77
2023/04/16 12:44:05;;;;;;;0.90;0.63;;;9.10;99.90;;;;;;5089842;28;20951;-78
2023/04/16 12:46:32;;;;;;;0.47;0.37;;;9.00;99.90;;;;;;5090412;28;20882;-78
2023/04/16 12:48:58;;;;;;;0.40;0.40;;;9.00;99.90;;;;;;5090080;28;20444;-78
2023/04/16 12:51:27;;;;;;;1.03;0.50;;;9.10;99.90;;;;;;5089878;28;20488;-78
2023/04/16 12:53:54;;;;;;;1.20;0.60;;;9.10;99.90;;;;;;5090019;28;20440;-78
2023/04/16 12:56:21;;;;;;;1.47;0.50;;;9.10;99.90;;;;;;5089943;28;20453;-78
2023/04/16 12:58:50;;;;;;;1.10;0.70;;;9.20;99.90;;;;;;5089872;28;20448;-78
2023/04/16 13:01:17;;;;;;;0.80;0.50;;;9.20;99.90;;;;;;5089277;28;20899;-78
2023/04/16 13:03:44;;;;;;;0.80;0.70;;;9.20;99.90;;;;;;5089549;28;20433;-78